Time;durP1;ratioP1;P1;durP2;ratioP2;P2;SDS_P1;SDS_P2;PMS_P1;PMS_P2;Temp;Humidity;BMP_temperature;BMP_pressure;BME280_temperature;BME280_humidity;BME280_pressure;Samples;Min_cycle;Max_cycle;Signal;HPM_P1;HPM_P2
2022/01/17 00:01:05;;;;;;;55.53;27.07;;;;;;;0.59;100.00;100253.78;4989301;28;20288;-70
2022/01/17 00:03:32;;;;;;;53.97;28.10;;;;;;;0.56;100.00;100263.34;4990229;28;20262;-71
2022/01/17 00:05:59;;;;;;;62.67;36.95;;;;;;;0.56;100.00;100268.47;4989725;28;20824;-70
2022/01/17 00:08:26;;;;;;;60.57;32.33;;;;;;;0.43;100.00;100266.28;4990990;28;20216;-72
2022/01/17 00:10:53;;;;;;;64.07;30.60;;;;;;;0.39;100.00;100272.38;4992576;28;20188;-71
2022/01/17 00:13:26;;;;;;;56.27;29.70;;;;;;;0.33;100.00;100264.88;4997080;28;20202;-71
2022/01/17 00:15:57;;;;;;;60.60;29.67;;;;;;;0.34;100.00;100256.28;4994654;28;20729;-71
2022/01/17 00:18:42;;;;;;;55.77;28.73;;;;;;;0.28;100.00;100269.28;4990513;28;20688;-70
2022/01/17 00:21:09;;;;;;;47.57;24.53;;;;;;;0.20;100.00;100276.38;5000198;28;20203;-72
2022/01/17 00:23:36;;;;;;;55.63;29.27;;;;;;;0.22;100.00;100269.47;5016440;28;20202;-71
2022/01/17 00:26:04;;;;;;;54.40;29.83;;;;;;;0.23;100.00;100266.00;5016388;28;20180;-71
2022/01/17 00:28:31;;;;;;;58.03;29.47;;;;;;;0.25;100.00;100275.38;5016632;28;20261;-70
2022/01/17 00:30:59;;;;;;;59.20;29.07;;;;;;;0.21;99.26;100271.22;5016602;28;20185;-71
2022/01/17 00:33:27;;;;;;;55.97;27.97;;;;;;;0.22;100.00;100272.03;5016811;28;20254;-70
2022/01/17 00:35:54;;;;;;;57.10;28.87;;;;;;;0.21;99.52;100286.63;5011526;28;20227;-72
2022/01/17 00:38:21;;;;;;;59.67;27.27;;;;;;;0.17;98.97;100291.88;5011329;28;20231;-71
2022/01/17 00:40:48;;;;;;;52.40;26.30;;;;;;;0.11;98.01;100291.16;5003827;28;20197;-72
2022/01/17 00:43:15;;;;;;;53.00;25.67;;;;;;;0.11;97.87;100300.59;5009306;28;21108;-72
2022/01/17 00:45:43;;;;;;;56.90;25.97;;;;;;;0.02;96.75;100309.38;5011251;28;20180;-71
2022/01/17 00:48:11;;;;;;;55.83;27.67;;;;;;;0.08;95.70;100305.81;5008954;28;20267;-71
2022/01/17 00:50:40;;;;;;;53.97;25.53;;;;;;;0.07;95.88;100304.97;5008401;28;20184;-71
2022/01/17 00:53:07;;;;;;;55.70;27.73;;;;;;;0.02;95.10;100301.69;5011560;28;20267;-71
2022/01/17 00:55:35;;;;;;;56.67;25.70;;;;;;;0.05;94.85;100311.03;5006003;28;20691;-70
2022/01/17 00:58:03;;;;;;;50.97;23.13;;;;;;;-0.03;94.03;100317.22;5011186;28;20209;-73
2022/01/17 01:00:30;;;;;;;50.83;25.20;;;;;;;-0.03;93.66;100324.09;5010701;28;20222;-70
2022/01/17 01:02:57;;;;;;;51.73;22.17;;;;;;;-0.05;93.11;100311.28;5010502;28;20188;-71
2022/01/17 01:05:24;;;;;;;57.67;31.50;;;;;;;-0.08;93.76;100316.50;5010219;28;20429;-71
2022/01/17 01:07:54;;;;;;;55.73;26.47;;;;;;;-0.07;95.18;100325.06;5011180;28;20715;-72
2022/01/17 01:10:21;;;;;;;52.47;26.27;;;;;;;-0.04;94.43;100332.69;5010174;28;20197;-72
2022/01/17 01:12:50;;;;;;;54.77;27.47;;;;;;;-0.03;94.82;100332.63;5010333;28;20200;-72
2022/01/17 01:15:20;;;;;;;55.40;26.57;;;;;;;0.00;94.84;100339.41;5007472;28;20195;-72
2022/01/17 01:17:51;;;;;;;53.53;25.40;;;;;;;0.01;94.45;100337.69;5007806;28;20241;-72
2022/01/17 01:20:33;;;;;;;50.67;25.17;;;;;;;0.02;94.58;100337.63;5008167;28;20722;-71
2022/01/17 01:28:38;;;;;;;51.03;25.60;;;;;;;0.09;95.45;100339.16;4992986;28;20299;-72
2022/01/17 01:31:11;;;;;;;46.70;24.87;;;;;;;-0.02;95.48;100313.78;4992760;28;20199;-72
2022/01/17 01:33:41;;;;;;;48.97;25.47;;;;;;;0.01;95.42;100312.84;4997968;28;20706;-72
2022/01/17 01:36:12;;;;;;;58.10;25.83;;;;;;;0.02;95.13;100323.97;5007802;22;20224;-67
2022/01/17 01:38:42;;;;;;;57.03;26.90;;;;;;;0.02;95.11;100323.97;4979598;28;20189;-66
2022/01/17 01:41:08;;;;;;;52.70;25.63;;;;;;;0.03;94.72;100317.94;4985017;28;20251;-67
2022/01/17 01:43:36;;;;;;;92.60;38.77;;;;;;;0.05;95.42;100306.72;4987280;28;20223;-67
2022/01/17 01:46:03;;;;;;;56.93;26.87;;;;;;;0.09;95.75;100304.94;4988773;28;20201;-67
2022/01/17 01:48:33;;;;;;;56.50;26.77;;;;;;;0.08;95.68;100298.94;4988617;28;20193;-68
2022/01/17 01:51:00;;;;;;;55.53;27.20;;;;;;;0.12;95.66;100300.53;4986398;28;20189;-66
2022/01/17 01:53:27;;;;;;;59.30;28.30;;;;;;;0.16;95.43;100306.44;4988449;28;20189;-68
2022/01/17 01:55:58;;;;;;;57.50;26.97;;;;;;;0.13;95.67;100309.94;4986274;28;20224;-67
2022/01/17 01:58:26;;;;;;;54.60;27.37;;;;;;;0.18;96.09;100303.81;4987783;28;20192;-67
2022/01/17 02:00:54;;;;;;;50.43;26.40;;;;;;;0.17;96.67;100309.84;4984923;28;20267;-67
2022/01/17 02:03:21;;;;;;;60.67;28.17;;;;;;;0.26;97.57;100291.63;4988198;28;20217;-67
2022/01/17 02:05:48;;;;;;;57.83;26.40;;;;;;;0.31;96.86;100297.47;4986002;28;20201;-67
2022/01/17 02:08:16;;;;;;;50.83;26.13;;;;;;;0.33;96.68;100282.84;4987621;28;20197;-67
2022/01/17 02:10:43;;;;;;;49.90;26.70;;;;;;;0.37;96.91;100275.91;4988045;28;20207;-69
2022/01/17 02:13:12;;;;;;;48.77;24.30;;;;;;;0.43;97.03;100274.00;4986866;28;20562;-69
2022/01/17 02:15:40;;;;;;;51.83;25.00;;;;;;;0.50;96.46;100284.09;4984808;28;20212;-65
2022/01/17 02:18:08;;;;;;;53.23;25.80;;;;;;;0.50;96.01;100295.22;4986278;28;20286;-66
2022/01/17 02:20:42;;;;;;;44.17;24.97;;;;;;;0.43;95.29;100291.16;4987264;28;20188;-67
2022/01/17 02:23:10;;;;;;;52.30;24.67;;;;;;;0.38;96.08;100282.72;4984883;28;20203;-67
2022/01/17 02:25:37;;;;;;;54.47;26.77;;;;;;;0.38;95.34;100296.41;4987599;28;20700;-67
2022/01/17 02:28:05;;;;;;;51.10;25.37;;;;;;;0.38;95.84;100286.13;4985435;28;20605;-68
2022/01/17 02:30:32;;;;;;;51.67;25.87;;;;;;;0.36;95.46;100285.31;4987363;28;20188;-67
2022/01/17 02:32:59;;;;;;;53.60;26.20;;;;;;;0.31;95.21;100291.50;4986055;28;20656;-67
2022/01/17 02:35:27;;;;;;;52.63;26.67;;;;;;;0.23;94.82;100294.25;4987064;28;20216;-67
2022/01/17 02:37:56;;;;;;;55.50;24.30;;;;;;;0.28;95.00;100293.25;4988479;28;20200;-68
2022/01/17 02:40:24;;;;;;;52.33;25.13;;;;;;;0.18;94.66;100296.13;4986514;28;20200;-67
2022/01/17 02:42:56;;;;;;;53.73;25.13;;;;;;;0.17;94.55;100279.88;4986201;28;20204;-67
2022/01/17 02:45:32;;;;;;;53.83;24.93;;;;;;;0.20;94.10;100291.78;4985961;28;20696;-69
2022/01/17 02:48:01;;;;;;;50.23;24.07;;;;;;;0.22;94.49;100284.88;4985464;28;20272;-67
2022/01/17 02:50:28;;;;;;;49.50;24.40;;;;;;;0.23;95.22;100289.13;4987066;28;20181;-67
2022/01/17 02:53:00;;;;;;;47.90;24.37;;;;;;;0.25;93.51;100295.06;4984609;28;20192;-67
2022/01/17 02:55:27;;;;;;;46.43;24.20;;;;;;;0.28;94.53;100288.13;4986277;28;20719;-67
2022/01/17 02:57:53;;;;;;;47.07;23.87;;;;;;;0.24;95.12;100290.81;4986432;28;20408;-67
2022/01/17 03:00:22;;;;;;;47.90;24.33;;;;;;;0.26;95.70;100289.03;4987222;28;20193;-67
2022/01/17 03:02:49;;;;;;;45.53;24.10;;;;;;;0.31;96.64;100278.66;4987875;28;20188;-66
2022/01/17 03:05:17;;;;;;;47.13;24.53;;;;;;;0.34;96.94;100284.53;4985877;28;20620;-67
2022/01/17 03:07:44;;;;;;;45.73;24.77;;;;;;;0.43;96.35;100286.84;4985689;28;20219;-67
2022/01/17 03:10:22;;;;;;;49.57;24.17;;;;;;;0.36;95.58;100297.34;4983614;28;20196;-67
2022/01/17 03:12:49;;;;;;;46.40;24.17;;;;;;;0.47;95.10;100299.59;4987049;28;20191;-67
2022/01/17 03:15:16;;;;;;;52.43;25.07;;;;;;;0.40;93.75;100309.22;4985240;28;20205;-67
2022/01/17 03:17:43;;;;;;;43.17;22.67;;;;;;;0.40;93.56;100304.06;4985229;28;20211;-67
2022/01/17 03:20:11;;;;;;;48.17;24.60;;;;;;;0.38;93.63;100311.81;4986131;28;20181;-68
2022/01/17 03:22:39;;;;;;;52.73;25.83;;;;;;;0.37;91.10;100309.31;4984988;28;20198;-69
2022/01/17 03:25:07;;;;;;;52.13;24.73;;;;;;;0.36;92.11;100308.44;4978438;28;20255;-68
2022/01/17 03:27:35;;;;;;;50.53;24.37;;;;;;;0.35;91.24;100300.78;4977341;28;20291;-68
2022/01/17 03:30:02;;;;;;;51.13;25.10;;;;;;;0.40;90.17;100278.38;4984003;28;20189;-68
2022/01/17 03:32:28;;;;;;;52.83;25.00;;;;;;;0.38;91.72;100282.72;4983541;28;20189;-67
2022/01/17 03:34:56;;;;;;;48.33;24.87;;;;;;;0.38;92.07;100285.28;4983797;28;20182;-67
2022/01/17 03:37:23;;;;;;;48.00;24.77;;;;;;;0.40;92.40;100284.34;4984148;28;20239;-69
2022/01/17 03:39:50;;;;;;;50.37;24.37;;;;;;;0.43;92.57;100273.16;4981765;28;20273;-68
2022/01/17 03:42:18;;;;;;;52.23;25.43;;;;;;;0.39;93.15;100267.25;4977369;28;20201;-68
2022/01/17 03:44:47;;;;;;;48.50;24.67;;;;;;;0.45;93.50;100273.97;4974454;28;20274;-68
2022/01/17 03:47:14;;;;;;;53.40;24.83;;;;;;;0.43;93.36;100265.44;4976343;28;20209;-68
2022/01/17 03:49:41;;;;;;;42.30;23.10;;;;;;;0.40;94.62;100256.09;4977959;28;20624;-67
2022/01/17 03:52:08;;;;;;;47.17;23.07;;;;;;;0.51;94.02;100262.63;4979910;28;20562;-68
2022/01/17 03:54:35;;;;;;;47.17;23.67;;;;;;;0.46;94.78;100272.22;4978976;28;20193;-68
2022/01/17 03:57:03;;;;;;;50.53;24.93;;;;;;;0.40;95.07;100273.25;4977848;28;20216;-68
2022/01/17 03:59:30;;;;;;;47.10;25.23;;;;;;;0.45;96.04;100281.66;4978529;28;20186;-68
2022/01/17 04:01:58;;;;;;;46.90;24.77;;;;;;;0.48;96.13;100288.44;4978242;28;20584;-67
2022/01/17 04:04:25;;;;;;;47.10;22.47;;;;;;;0.51;96.45;100298.63;4976368;28;20196;-68
2022/01/17 04:06:52;;;;;;;48.57;24.13;;;;;;;0.53;96.29;100302.81;4978955;28;20290;-67
2022/01/17 04:09:19;;;;;;;47.30;24.23;;;;;;;0.55;96.23;100311.31;4973250;28;20189;-67
2022/01/17 04:11:46;;;;;;;45.07;24.70;;;;;;;0.56;96.54;100296.75;4973989;28;20204;-67
2022/01/17 04:14:12;;;;;;;49.83;24.77;;;;;;;0.59;96.16;100304.38;4972520;28;20648;-67
2022/01/17 04:16:39;;;;;;;47.07;23.60;;;;;;;0.60;96.65;100295.78;4974542;28;20227;-68
2022/01/17 04:19:09;;;;;;;50.07;24.47;;;;;;;0.67;95.74;100302.41;4977222;28;20396;-67
2022/01/17 04:21:36;;;;;;;47.67;23.47;;;;;;;0.67;95.30;100317.84;4976368;28;20213;-67
2022/01/17 04:24:03;;;;;;;48.53;24.53;;;;;;;0.63;95.60;100310.25;4978242;28;20470;-67
2022/01/17 04:26:30;;;;;;;45.57;22.87;;;;;;;0.61;95.70;100314.59;4977854;28;20221;-67
2022/01/17 04:28:57;;;;;;;46.47;23.73;;;;;;;0.65;96.30;100316.19;4976772;28;20673;-67
2022/01/17 04:31:24;;;;;;;46.03;22.97;;;;;;;0.63;96.85;100315.38;4977944;28;20193;-67
2022/01/17 04:33:50;;;;;;;49.40;22.63;;;;;;;0.63;96.96;100307.69;4975723;28;20421;-68
2022/01/17 04:36:19;;;;;;;45.30;22.60;;;;;;;0.59;97.01;100305.19;4977794;28;20273;-68
2022/01/17 04:38:45;;;;;;;41.93;22.53;;;;;;;0.61;97.30;100296.59;4978435;28;20256;-68
2022/01/17 04:41:15;;;;;;;43.73;22.33;;;;;;;0.62;97.80;100283.72;4977847;28;20212;-68
2022/01/17 04:43:58;;;;;;;44.47;21.60;;;;;;;0.60;97.79;100270.06;4976142;28;20569;-68
2022/01/17 04:46:25;;;;;;;43.97;22.70;;;;;;;0.65;98.07;100280.19;4976903;28;20437;-67
2022/01/17 04:48:51;;;;;;;41.63;22.50;;;;;;;0.65;97.90;100278.50;4976283;28;20196;-68
2022/01/17 04:51:19;;;;;;;43.03;22.27;;;;;;;0.72;97.11;100292.84;4977637;28;20190;-67
2022/01/17 04:54:02;;;;;;;42.97;22.03;;;;;;;0.64;96.84;100291.38;4977503;28;20192;-67
2022/01/17 04:56:29;;;;;;;44.80;22.70;;;;;;;0.73;97.26;100296.22;4978740;28;20217;-67
2022/01/17 04:58:56;;;;;;;42.73;22.20;;;;;;;0.64;96.37;100305.06;4978346;28;20190;-67
2022/01/17 05:01:22;;;;;;;44.93;23.03;;;;;;;0.65;97.46;100318.75;4976168;28;20194;-67
2022/01/17 05:03:49;;;;;;;55.47;26.53;;;;;;;0.68;97.50;100309.22;4976056;28;20219;-67
2022/01/17 05:06:16;;;;;;;52.77;27.13;;;;;;;0.64;96.68;100311.94;4973971;28;20297;-67
2022/01/17 05:08:44;;;;;;;50.07;25.27;;;;;;;0.66;96.99;100311.00;4978316;28;20194;-67
2022/01/17 05:11:10;;;;;;;46.90;24.30;;;;;;;0.69;96.93;100313.50;4976251;28;20708;-67
2022/01/17 05:13:44;;;;;;;43.60;23.67;;;;;;;0.68;97.25;100318.66;4986754;28;20192;-67
2022/01/17 05:16:14;;;;;;;45.60;23.57;;;;;;;0.75;95.90;100319.34;4979591;28;20710;-67
2022/01/17 05:21:25;;;;;;;44.07;23.80;;;;;;;0.71;96.01;100318.56;4988207;28;20239;-68
2022/01/17 05:23:53;;;;;;;45.10;23.13;;;;;;;0.74;94.84;100315.91;4981274;28;20189;-68
2022/01/17 05:26:20;;;;;;;49.80;22.13;;;;;;;0.67;95.12;100312.69;4981950;28;20227;-68
2022/01/17 05:28:47;;;;;;;47.20;24.00;;;;;;;0.61;96.41;100312.88;4981507;28;20194;-68
2022/01/17 05:31:15;;;;;;;46.30;22.33;;;;;;;0.54;95.76;100322.47;4981069;28;20203;-67
2022/01/17 05:33:42;;;;;;;45.23;23.97;;;;;;;0.54;96.42;100326.78;4980887;28;20181;-67
2022/01/17 05:36:09;;;;;;;47.40;23.33;;;;;;;0.52;97.14;100321.72;4979600;28;20724;-67
2022/01/17 05:38:36;;;;;;;48.90;23.53;;;;;;;0.55;96.56;100329.28;4976633;28;20509;-67
2022/01/17 05:41:04;;;;;;;50.00;24.67;;;;;;;0.53;97.18;100335.38;4977606;28;20201;-69
2022/01/17 05:43:30;;;;;;;48.73;23.53;;;;;;;0.53;97.40;100338.78;4981495;28;20197;-66
2022/01/17 05:45:57;;;;;;;43.83;22.73;;;;;;;0.54;98.26;100339.63;4981179;28;20248;-68
2022/01/17 05:48:24;;;;;;;48.93;23.70;;;;;;;0.57;97.60;100348.09;4981639;28;20252;-68
2022/01/17 05:50:50;;;;;;;393.73;152.93;;;;;;;0.59;97.53;100351.44;4981005;28;20650;-67
2022/01/17 05:53:17;;;;;;;61.90;35.03;;;;;;;0.60;97.33;100339.47;4981229;28;20277;-67
2022/01/17 05:55:44;;;;;;;40.80;22.67;;;;;;;0.56;97.57;100338.69;4980793;28;20208;-67
2022/01/17 05:58:13;;;;;;;41.13;21.57;;;;;;;0.52;97.81;100339.69;4980445;28;20217;-67
2022/01/17 06:00:40;;;;;;;45.57;23.70;;;;;;;0.49;97.72;100336.34;4980272;28;20283;-67
2022/01/17 06:03:07;;;;;;;44.80;23.40;;;;;;;0.50;97.77;100341.47;4980587;28;20185;-67
2022/01/17 06:05:34;;;;;;;48.43;22.77;;;;;;;0.57;97.82;100329.28;4980240;28;20216;-67
2022/01/17 06:08:00;;;;;;;40.97;20.80;;;;;;;0.57;97.55;100324.13;4980705;28;20254;-68
2022/01/17 06:10:28;;;;;;;43.17;22.77;;;;;;;0.58;97.19;100313.78;4980509;28;20255;-68
2022/01/17 06:12:55;;;;;;;42.03;23.13;;;;;;;0.55;96.42;100320.75;4981070;28;20193;-68
2022/01/17 06:15:23;;;;;;;44.77;22.23;;;;;;;0.57;96.41;100316.41;4980188;28;20705;-66
2022/01/17 06:17:50;;;;;;;45.20;22.63;;;;;;;0.58;96.31;100318.94;4979923;28;20217;-67
2022/01/17 06:20:17;;;;;;;48.50;23.50;;;;;;;0.61;97.29;100307.72;4979981;28;20268;-67
2022/01/17 06:22:44;;;;;;;44.80;22.13;;;;;;;0.59;96.85;100297.47;4980256;28;20196;-67
2022/01/17 06:25:11;;;;;;;43.93;21.77;;;;;;;0.60;97.62;100293.19;4979609;28;20203;-67
2022/01/17 06:27:38;;;;;;;45.90;22.37;;;;;;;0.54;97.60;100281.34;4980155;28;20184;-67
2022/01/17 06:30:07;;;;;;;43.20;22.50;;;;;;;0.53;97.86;100292.53;4979993;28;20416;-67
2022/01/17 06:32:35;;;;;;;48.03;23.00;;;;;;;0.57;98.25;100312.09;4978526;28;20193;-67
2022/01/17 06:35:04;;;;;;;44.42;26.15;;;;;;;0.53;98.11;100331.06;4978897;28;20496;-67
2022/01/17 06:37:31;;;;;;;44.87;23.43;;;;;;;0.63;98.47;100333.38;4979988;28;20267;-67
2022/01/17 06:39:57;;;;;;;42.27;21.27;;;;;;;0.62;98.08;100339.41;4979348;28;20207;-67
2022/01/17 06:42:25;;;;;;;40.80;22.10;;;;;;;0.64;97.93;100350.47;4979641;28;20207;-67
2022/01/17 06:44:52;;;;;;;46.20;22.47;;;;;;;0.61;97.13;100348.84;4979541;28;20193;-67
2022/01/17 06:47:19;;;;;;;49.50;24.20;;;;;;;0.58;94.61;100361.78;4978043;28;20205;-67
2022/01/17 06:49:47;;;;;;;42.13;22.50;;;;;;;0.49;96.07;100364.63;4979634;28;20265;-67
2022/01/17 06:52:14;;;;;;;46.17;23.00;;;;;;;0.47;96.12;100346.69;4979159;28;20565;-67
2022/01/17 06:54:41;;;;;;;45.93;21.90;;;;;;;0.34;97.12;100346.19;4978915;28;20203;-67
2022/01/17 06:57:08;;;;;;;49.07;23.93;;;;;;;0.29;97.14;100361.72;4979852;28;20686;-66
2022/01/17 06:59:34;;;;;;;49.57;23.50;;;;;;;0.31;96.24;100363.41;4980189;28;20706;-66
2022/01/17 07:02:01;;;;;;;44.60;23.10;;;;;;;0.20;95.93;100369.69;4979744;28;20205;-66
2022/01/17 07:04:28;;;;;;;52.47;24.97;;;;;;;0.20;96.31;100384.25;4979630;28;20288;-66
2022/01/17 07:06:56;;;;;;;54.30;26.97;;;;;;;0.24;96.79;100370.44;4978222;28;20224;-67
2022/01/17 07:09:22;;;;;;;52.93;27.07;;;;;;;0.19;97.65;100382.56;4977510;28;20198;-66
2022/01/17 07:11:49;;;;;;;52.53;25.27;;;;;;;0.19;98.78;100405.66;4977709;28;20754;-67
2022/01/17 07:14:16;;;;;;;54.93;26.07;;;;;;;0.14;98.36;100434.06;4978816;28;20187;-66
2022/01/17 07:16:43;;;;;;;114.90;58.23;;;;;;;0.13;98.72;100440.91;4978902;28;20205;-66
2022/01/17 07:19:10;;;;;;;60.47;32.03;;;;;;;0.13;99.43;100453.75;4980072;28;20215;-66
2022/01/17 07:21:37;;;;;;;51.50;25.43;;;;;;;0.10;99.94;100474.34;4978074;28;20248;-65
2022/01/17 07:24:06;;;;;;;59.57;29.83;;;;;;;0.14;100.00;100475.13;4979476;28;20203;-66
2022/01/17 07:26:33;;;;;;;52.43;24.43;;;;;;;0.12;100.00;100489.75;4980081;28;20217;-66
2022/01/17 07:29:00;;;;;;;54.27;25.63;;;;;;;0.14;100.00;100508.53;4979049;28;20392;-66
2022/01/17 07:31:27;;;;;;;57.00;28.53;;;;;;;0.08;100.00;100494.09;4978837;28;20197;-66
2022/01/17 07:33:54;;;;;;;54.67;26.37;;;;;;;0.13;100.00;100487.13;4978790;28;20199;-67
2022/01/17 07:36:20;;;;;;;53.37;27.83;;;;;;;0.12;100.00;100470.03;4978641;28;20235;-66
2022/01/17 07:38:48;;;;;;;49.77;26.47;;;;;;;0.15;100.00;100448.56;4978977;28;20209;-67
2022/01/17 07:41:16;;;;;;;49.40;25.07;;;;;;;0.10;100.00;100440.97;4974735;28;20193;-67
2022/01/17 07:43:44;;;;;;;54.83;27.07;;;;;;;0.16;100.00;100434.00;4974905;28;20594;-66
2022/01/17 07:46:23;;;;;;;54.33;29.35;;;;;;;0.20;100.00;100433.91;4974828;28;20465;-70
2022/01/17 07:49:09;;;;;;;56.30;28.13;;;;;;;0.18;100.00;100443.38;4978652;28;20280;-70
2022/01/17 07:51:36;;;;;;;53.13;26.70;;;;;;;0.22;100.00;100460.38;4978630;28;20693;-69
2022/01/17 07:54:05;;;;;;;55.33;27.43;;;;;;;0.28;100.00;100443.94;4977515;28;20201;-69
2022/01/17 07:56:33;;;;;;;52.53;27.27;;;;;;;0.34;100.00;100435.25;4984153;28;20221;-70
2022/01/17 07:59:00;;;;;;;51.47;26.17;;;;;;;0.39;100.00;100434.25;4978376;28;20193;-69
2022/01/17 08:01:28;;;;;;;57.37;27.33;;;;;;;0.50;100.00;100430.53;4976422;28;20199;-70
2022/01/17 08:03:54;;;;;;;49.07;26.30;;;;;;;0.54;100.00;100427.84;4977951;28;20197;-70
2022/01/17 08:06:21;;;;;;;51.20;25.03;;;;;;;0.56;100.00;100430.38;4977984;28;20213;-69
2022/01/17 08:08:48;;;;;;;51.60;28.20;;;;;;;0.61;100.00;100438.81;4978286;28;20181;-68
2022/01/17 08:11:15;;;;;;;53.47;27.50;;;;;;;0.52;100.00;100449.34;4978465;28;20264;-68
2022/01/17 08:13:43;;;;;;;45.10;23.60;;;;;;;0.52;100.00;100463.03;4976507;28;20185;-69
2022/01/17 08:16:10;;;;;;;46.10;23.13;;;;;;;0.54;100.00;100456.09;4978051;28;20244;-69
2022/01/17 08:18:37;;;;;;;43.30;22.77;;;;;;;0.56;100.00;100458.66;4978361;28;20225;-69
2022/01/17 08:21:04;;;;;;;47.03;26.67;;;;;;;0.61;100.00;100461.94;4978000;28;20184;-68
2022/01/17 08:23:31;;;;;;;54.87;29.30;;;;;;;0.70;100.00;100466.81;4978275;28;20195;-68
2022/01/17 08:25:58;;;;;;;45.17;25.40;;;;;;;0.72;100.00;100469.34;4976314;28;20216;-68
2022/01/17 08:28:24;;;;;;;37.50;18.93;;;;;;;0.76;100.00;100481.22;4977918;28;21407;-68
2022/01/17 08:30:53;;;;;;;36.33;19.57;;;;;;;0.73;100.00;100486.44;4977724;28;20185;-68
2022/01/17 08:33:21;;;;;;;42.87;20.00;;;;;;;0.83;100.00;100497.34;4978425;28;20185;-68
2022/01/17 08:35:48;;;;;;;35.67;17.53;;;;;;;0.80;100.00;100498.25;4977537;28;20279;-67
2022/01/17 08:38:15;;;;;;;32.73;17.20;;;;;;;0.79;100.00;100490.59;4976028;28;20205;-68
2022/01/17 08:40:42;;;;;;;35.53;18.50;;;;;;;0.92;100.00;100489.38;4978890;28;20204;-68
2022/01/17 08:43:09;;;;;;;36.03;20.67;;;;;;;0.93;100.00;100488.47;4983772;28;20925;-69
2022/01/17 08:45:36;;;;;;;35.67;18.07;;;;;;;0.96;100.00;100483.25;4985313;28;20224;-68
2022/01/17 08:48:05;;;;;;;29.70;15.57;;;;;;;0.94;100.00;100473.88;4987651;28;20185;-68
2022/01/17 08:50:32;;;;;;;33.33;15.87;;;;;;;0.96;100.00;100465.25;4986128;28;20231;-69
2022/01/17 08:52:59;;;;;;;29.67;16.00;;;;;;;0.97;100.00;100446.38;4976774;28;20193;-70
2022/01/17 08:55:26;;;;;;;30.33;15.73;;;;;;;1.09;100.00;100462.31;4975063;28;20226;-69
2022/01/17 08:57:53;;;;;;;37.93;19.83;;;;;;;1.18;100.00;100462.03;4979072;28;20225;-71
2022/01/17 09:00:21;;;;;;;41.70;23.10;;;;;;;1.25;100.00;100453.25;4978060;28;20280;-72
2022/01/17 09:02:47;;;;;;;38.03;20.17;;;;;;;1.28;100.00;100467.75;4982095;28;20300;-71
2022/01/17 09:05:15;;;;;;;38.53;18.83;;;;;;;1.35;100.00;100466.69;4981001;28;20219;-71
2022/01/17 09:07:42;;;;;;;35.70;18.63;;;;;;;1.33;100.00;100471.88;4974952;28;20194;-71
2022/01/17 09:10:10;;;;;;;35.43;18.77;;;;;;;1.35;100.00;100483.84;4974436;28;20417;-72
2022/01/17 09:12:37;;;;;;;30.80;17.93;;;;;;;1.46;100.00;100482.66;4974127;28;20197;-72
2022/01/17 09:15:05;;;;;;;27.57;15.63;;;;;;;1.58;100.00;100496.03;4973021;28;20213;-72
2022/01/17 09:17:31;;;;;;;25.47;14.83;;;;;;;1.60;100.00;100497.66;4973172;28;20190;-72
2022/01/17 09:19:58;;;;;;;21.93;12.80;;;;;;;1.70;100.00;100507.69;4973284;28;20194;-72
2022/01/17 09:22:29;;;;;;;23.93;13.23;;;;;;;1.77;100.00;100504.03;4972724;28;20196;-72
2022/01/17 09:24:56;;;;;;;25.50;14.00;;;;;;;1.80;100.00;100496.19;4971319;28;20663;-72
2022/01/17 09:27:23;;;;;;;25.47;14.20;;;;;;;1.88;100.00;100496.81;4972868;28;20200;-71
2022/01/17 09:29:53;;;;;;;23.90;13.03;;;;;;;1.91;99.64;100488.13;4989795;23;20318;-77
2022/01/17 09:32:20;;;;;;;29.57;14.67;;;;;;;1.94;99.95;100497.50;4991890;28;20687;-77
2022/01/17 09:34:47;;;;;;;21.50;12.60;;;;;;;2.01;98.67;100499.81;4993343;28;20208;-77
2022/01/17 09:37:14;;;;;;;24.43;13.37;;;;;;;2.05;98.20;100518.59;4993638;28;20185;-75
2022/01/17 09:39:43;;;;;;;24.87;12.77;;;;;;;2.01;97.52;100527.31;4985483;28;20214;-75
2022/01/17 09:42:11;;;;;;;25.83;12.90;;;;;;;2.06;97.43;100548.63;4992279;28;20189;-75
2022/01/17 09:44:40;;;;;;;26.83;13.13;;;;;;;2.02;97.75;100545.28;4993871;28;20193;-75
2022/01/17 09:47:08;;;;;;;28.47;15.43;;;;;;;2.10;96.70;100549.34;4993058;28;20194;-77
2022/01/17 09:49:39;;;;;;;27.27;14.50;;;;;;;2.03;97.62;100552.13;4996157;28;20239;-77
2022/01/17 09:52:33;;;;;;;26.10;13.20;;;;;;;2.01;98.04;100547.94;4993860;28;20181;-77
2022/01/17 09:55:08;;;;;;;26.83;14.43;;;;;;;2.09;99.38;100540.81;4991113;28;20288;-77
2022/01/17 09:57:40;;;;;;;21.10;12.03;;;;;;;2.21;98.31;100553.25;4991367;28;20216;-77
2022/01/17 10:00:09;;;;;;;21.27;12.30;;;;;;;2.33;97.83;100544.31;4992615;28;20229;-78
2022/01/17 10:02:41;;;;;;;22.10;11.67;;;;;;;2.41;96.56;100545.78;4992952;28;20547;-77
2022/01/17 10:05:09;;;;;;;25.13;14.93;;;;;;;2.28;96.91;100558.22;4992538;28;20440;-77
2022/01/17 10:07:56;;;;;;;22.00;11.87;;;;;;;2.40;97.71;100550.09;4993701;28;20264;-77
2022/01/17 10:10:44;;;;;;;71.33;29.17;;;;;;;2.47;97.00;100548.16;4992949;28;20227;-77
2022/01/17 10:13:16;;;;;;;23.27;13.47;;;;;;;2.35;96.45;100537.38;4993646;28;20193;-77
2022/01/17 10:16:04;;;;;;;53.60;23.20;;;;;;;2.39;97.54;100540.66;4992530;28;20232;-77
2022/01/17 10:18:35;;;;;;;32.73;16.43;;;;;;;2.40;97.69;100518.34;4992173;28;20275;-77
2022/01/17 10:21:07;;;;;;;96.17;39.97;;;;;;;2.54;97.85;100528.16;4989652;28;20205;-77
2022/01/17 10:23:49;;;;;;;84.10;35.13;;;;;;;2.75;96.77;100526.56;5002322;28;20255;-77
2022/01/17 10:34:55;;;;;;;129.80;59.00;;;;;;;3.23;94.18;100501.63;4988216;28;20687;-78
2022/01/17 10:37:23;;;;;;;31.93;17.80;;;;;;;3.46;93.52;100508.53;4993625;28;20203;-76
2022/01/17 10:39:57;;;;;;;25.90;15.20;;;;;;;3.62;92.92;100506.19;4992804;28;20214;-76
2022/01/17 10:42:28;;;;;;;51.80;24.23;;;;;;;3.52;93.30;100494.53;5001100;28;20197;-76
2022/01/17 10:45:01;;;;;;;37.23;18.80;;;;;;;3.59;93.20;100510.63;5009865;28;20196;-75
2022/01/17 10:47:29;;;;;;;25.23;14.07;;;;;;;3.62;92.84;100508.75;4992868;28;20273;-77
2022/01/17 10:49:58;;;;;;;16.83;9.87;;;;;;;3.65;92.45;100518.97;4992584;28;20217;-75
2022/01/17 10:52:31;;;;;;;16.63;9.73;;;;;;;3.72;92.15;100513.56;4991818;28;20193;-74
2022/01/17 10:55:00;;;;;;;15.80;9.50;;;;;;;3.79;91.31;100523.59;4992184;28;20200;-72
2022/01/17 10:57:34;;;;;;;14.50;9.17;;;;;;;3.89;91.43;100526.66;4992449;28;20193;-74
2022/01/17 11:00:04;;;;;;;14.13;8.70;;;;;;;3.92;90.79;100539.47;4999420;28;20216;-72
2022/01/17 11:02:31;;;;;;;13.13;8.50;;;;;;;4.13;90.11;100530.00;4995894;28;20194;-73
2022/01/17 11:05:03;;;;;;;17.63;10.53;;;;;;;4.09;90.56;100532.78;4990767;28;20681;-76
2022/01/17 11:07:30;;;;;;;19.13;10.17;;;;;;;4.17;89.58;100532.47;4992451;28;20182;-76
2022/01/17 11:10:00;;;;;;;17.50;9.53;;;;;;;4.25;87.81;100543.31;4990744;28;20221;-73
2022/01/17 11:12:30;;;;;;;14.67;9.00;;;;;;;4.25;89.04;100554.50;4992293;28;20193;-75
2022/01/17 11:14:58;;;;;;;12.47;6.90;;;;;;;4.17;88.55;100551.41;4991949;28;20214;-73
2022/01/17 11:17:33;;;;;;;13.20;7.57;;;;;;;4.06;88.35;100549.25;4992201;28;20615;-75
2022/01/17 11:20:04;;;;;;;15.80;9.20;;;;;;;3.96;89.41;100555.66;4992137;28;20585;-73
2022/01/17 11:22:32;;;;;;;11.43;6.47;;;;;;;3.91;90.04;100562.75;5011470;28;20189;-74
2022/01/17 11:25:00;;;;;;;16.63;9.53;;;;;;;3.80;90.17;100564.03;5011311;28;20181;-72
2022/01/17 11:27:27;;;;;;;20.07;10.93;;;;;;;3.79;91.81;100561.50;5011650;28;20196;-73
2022/01/17 11:29:57;;;;;;;18.00;11.30;;;;;;;3.69;93.16;100567.03;5011496;28;20216;-76
2022/01/17 11:32:24;;;;;;;22.53;11.97;;;;;;;3.67;93.19;100578.34;5011715;28;20704;-75
2022/01/17 11:34:51;;;;;;;20.63;11.00;;;;;;;3.63;93.44;100572.44;4994528;28;20200;-75
2022/01/17 11:37:19;;;;;;;23.03;12.33;;;;;;;3.60;93.58;100566.53;4991921;28;20185;-76